LNR237 LFML-LFLL
Flight info
| Callsign | LNR237 |
|---|---|
| Flight time | 0h 30m |
| Altitude | 17000 |
| Route | MTL |
| Aircraft | A321/M-SDE3FGHIRWY/LB1 |
Departure
| Time | 2026-05-07 20:51 |
|---|---|
| Airport | Marseille Provence Airport (LFML) |
Arrival
| Time | 2026-05-07 21:21 |
|---|---|
| Airport | Lyon Saint-Exupéry Airport (LFLL) |
| Time | Latitude | Longitude | Altitude | Speed | Heading |
|---|---|---|---|---|---|
| 2026-05-07 20:25 | 43.43861 | 5.22304 | 45 ft | 0 kts | 74° |
| 2026-05-07 20:36 | 43.43855 | 5.22275 | 42 ft | 4 kts | 74° |
| 2026-05-07 20:37 | 43.43850 | 5.22248 | 41 ft | 4 kts | 69° |
| 2026-05-07 20:37 | 43.43837 | 5.22222 | 41 ft | 4 kts | 26° |
| 2026-05-07 20:37 | 43.43816 | 5.22218 | 42 ft | 2 kts | 343° |
| 2026-05-07 20:37 | 43.43806 | 5.22222 | 45 ft | 4 kts | 343° |
| 2026-05-07 20:39 | 43.43796 | 5.22226 | 42 ft | 1 kts | 343° |
| 2026-05-07 20:44 | 43.43799 | 5.22225 | 45 ft | 3 kts | 343° |
| 2026-05-07 20:44 | 43.43857 | 5.22198 | 44 ft | 11 kts | 335° |
| 2026-05-07 20:45 | 43.43855 | 5.22127 | 43 ft | 10 kts | 233° |
| 2026-05-07 20:45 | 43.43806 | 5.22062 | 43 ft | 12 kts | 224° |
| 2026-05-07 20:45 | 43.43811 | 5.21941 | 40 ft | 16 kts | 313° |
| 2026-05-07 20:45 | 43.43891 | 5.21828 | 38 ft | 17 kts | 314° |
| 2026-05-07 20:46 | 43.43975 | 5.21702 | 35 ft | 18 kts | 297° |
| 2026-05-07 20:46 | 43.43927 | 5.21561 | 34 ft | 17 kts | 236° |
| 2026-05-07 20:46 | 43.43961 | 5.21427 | 31 ft | 17 kts | 313° |
| 2026-05-07 20:46 | 43.44047 | 5.21307 | 28 ft | 18 kts | 314° |
| 2026-05-07 20:47 | 43.44138 | 5.21175 | 24 ft | 20 kts | 314° |
| 2026-05-07 20:47 | 43.44236 | 5.21034 | 21 ft | 21 kts | 313° |
| 2026-05-07 20:47 | 43.44309 | 5.20874 | 19 ft | 15 kts | 284° |
| 2026-05-07 20:47 | 43.44265 | 5.20755 | 18 ft | 14 kts | 225° |
| 2026-05-07 20:48 | 43.44205 | 5.20627 | 18 ft | 16 kts | 243° |
| 2026-05-07 20:48 | 43.44152 | 5.20496 | 18 ft | 12 kts | 241° |
| 2026-05-07 20:48 | 43.44145 | 5.20477 | 18 ft | 0 kts | 240° |
| 2026-05-07 20:49 | 43.44139 | 5.20465 | 18 ft | 7 kts | 239° |
| 2026-05-07 20:49 | 43.44088 | 5.20412 | 17 ft | 11 kts | 196° |
| 2026-05-07 20:50 | 43.44025 | 5.20448 | 15 ft | 0 kts | 136° |
| 2026-05-07 20:50 | 43.43867 | 5.20666 | 18 ft | 80 kts | 134° |
| 2026-05-07 20:50 | 43.43259 | 5.21506 | 48 ft | 160 kts | 135° |
| 2026-05-07 20:51 | 43.42420 | 5.22641 | 758 ft | 173 kts | 134° |
| 2026-05-07 20:51 | 43.41868 | 5.24085 | 1813 ft | 175 kts | 101° |
| 2026-05-07 20:51 | 43.41927 | 5.25813 | 2530 ft | 190 kts | 80° |
| 2026-05-07 20:51 | 43.42189 | 5.27675 | 2762 ft | 208 kts | 77° |
| 2026-05-07 20:52 | 43.42956 | 5.29393 | 3033 ft | 222 kts | 38° |
| 2026-05-07 20:52 | 43.44436 | 5.30001 | 3390 ft | 230 kts | 359° |
| 2026-05-07 20:52 | 43.46013 | 5.29568 | 3822 ft | 233 kts | 343° |
| 2026-05-07 20:52 | 43.47543 | 5.28807 | 4242 ft | 237 kts | 339° |
| 2026-05-07 20:53 | 43.49142 | 5.27935 | 4458 ft | 255 kts | 339° |
| 2026-05-07 20:53 | 43.50832 | 5.27031 | 4900 ft | 269 kts | 340° |
| 2026-05-07 20:53 | 43.52622 | 5.26120 | 5529 ft | 278 kts | 341° |
| 2026-05-07 20:53 | 43.54458 | 5.25228 | 6286 ft | 283 kts | 341° |
| 2026-05-07 20:54 | 43.56342 | 5.24345 | 7009 ft | 287 kts | 342° |
| 2026-05-07 20:54 | 43.58248 | 5.23475 | 7782 ft | 289 kts | 342° |
| 2026-05-07 20:54 | 43.60168 | 5.22611 | 8579 ft | 291 kts | 342° |
| 2026-05-07 20:54 | 43.62100 | 5.21746 | 9383 ft | 293 kts | 342° |
| 2026-05-07 20:55 | 43.64044 | 5.20879 | 10152 ft | 295 kts | 342° |
| 2026-05-07 20:55 | 43.66063 | 5.19978 | 10389 ft | 316 kts | 342° |
| 2026-05-07 20:55 | 43.68230 | 5.19006 | 10599 ft | 335 kts | 341° |
| 2026-05-07 20:55 | 43.70474 | 5.17993 | 11138 ft | 342 kts | 341° |
| 2026-05-07 20:56 | 43.72744 | 5.16957 | 11760 ft | 346 kts | 340° |
| 2026-05-07 20:56 | 43.75033 | 5.15883 | 12410 ft | 349 kts | 340° |
| 2026-05-07 20:56 | 43.77341 | 5.14783 | 13070 ft | 353 kts | 340° |
| 2026-05-07 20:56 | 43.79641 | 5.13682 | 13728 ft | 356 kts | 340° |
| 2026-05-07 20:57 | 43.81993 | 5.12556 | 14322 ft | 359 kts | 340° |
| 2026-05-07 20:57 | 43.84368 | 5.11420 | 14907 ft | 362 kts | 340° |
| 2026-05-07 20:57 | 43.86761 | 5.10279 | 15492 ft | 365 kts | 340° |
| 2026-05-07 20:57 | 43.89175 | 5.09133 | 16068 ft | 368 kts | 340° |
| 2026-05-07 20:58 | 43.91609 | 5.07990 | 16627 ft | 371 kts | 340° |
| 2026-05-07 20:58 | 43.94071 | 5.06845 | 16934 ft | 374 kts | 340° |
| 2026-05-07 20:58 | 43.96526 | 5.05711 | 16996 ft | 369 kts | 340° |
| 2026-05-07 20:58 | 43.98953 | 5.04593 | 17001 ft | 366 kts | 340° |
| 2026-05-07 20:59 | 44.01366 | 5.03474 | 17000 ft | 366 kts | 340° |
| 2026-05-07 20:59 | 44.03778 | 5.02351 | 16998 ft | 365 kts | 340° |
| 2026-05-07 20:59 | 44.06193 | 5.01225 | 16998 ft | 365 kts | 340° |
| 2026-05-07 20:59 | 44.08603 | 5.00104 | 16998 ft | 365 kts | 340° |
| 2026-05-07 21:00 | 44.11016 | 4.98981 | 17001 ft | 365 kts | 340° |
| 2026-05-07 21:00 | 44.13424 | 4.97855 | 17004 ft | 365 kts | 340° |
| 2026-05-07 21:00 | 44.15833 | 4.96727 | 17001 ft | 365 kts | 340° |
| 2026-05-07 21:00 | 44.18235 | 4.95599 | 17005 ft | 364 kts | 340° |
| 2026-05-07 21:01 | 44.20636 | 4.94470 | 17012 ft | 364 kts | 339° |
| 2026-05-07 21:01 | 44.22229 | 4.93720 | 17013 ft | 364 kts | 339° |
| 2026-05-07 21:01 | 44.24629 | 4.92591 | 17011 ft | 364 kts | 340° |
| 2026-05-07 21:01 | 44.27029 | 4.91462 | 17011 ft | 364 kts | 339° |
| 2026-05-07 21:02 | 44.29424 | 4.90334 | 17009 ft | 364 kts | 339° |
| 2026-05-07 21:02 | 44.31824 | 4.89203 | 16990 ft | 364 kts | 339° |
| 2026-05-07 21:02 | 44.34998 | 4.87705 | 16986 ft | 363 kts | 339° |
| 2026-05-07 21:02 | 44.36612 | 4.86942 | 16989 ft | 363 kts | 339° |
| 2026-05-07 21:03 | 44.39005 | 4.85808 | 16990 ft | 363 kts | 339° |
| 2026-05-07 21:03 | 44.41398 | 4.84677 | 16987 ft | 363 kts | 339° |
| 2026-05-07 21:03 | 44.43793 | 4.83546 | 16990 ft | 363 kts | 339° |
| 2026-05-07 21:03 | 44.46181 | 4.82414 | 16988 ft | 363 kts | 339° |
| 2026-05-07 21:04 | 44.48571 | 4.81276 | 16992 ft | 363 kts | 339° |
| 2026-05-07 21:04 | 44.50962 | 4.80138 | 16992 ft | 363 kts | 339° |
| 2026-05-07 21:04 | 44.53325 | 4.79028 | 16999 ft | 363 kts | 341° |
| 2026-05-07 21:04 | 44.55800 | 4.78306 | 16994 ft | 365 kts | 352° |
| 2026-05-07 21:05 | 44.58340 | 4.78255 | 16991 ft | 367 kts | 2° |
| 2026-05-07 21:05 | 44.60889 | 4.78526 | 16995 ft | 367 kts | 2° |
| 2026-05-07 21:05 | 44.63435 | 4.78795 | 16994 ft | 367 kts | 2° |
| 2026-05-07 21:05 | 44.65984 | 4.79060 | 16994 ft | 367 kts | 2° |
| 2026-05-07 21:06 | 44.68527 | 4.79319 | 16990 ft | 367 kts | 2° |
| 2026-05-07 21:06 | 44.71082 | 4.79580 | 16994 ft | 367 kts | 2° |
| 2026-05-07 21:06 | 44.73630 | 4.79844 | 16991 ft | 367 kts | 2° |
| 2026-05-07 21:06 | 44.76177 | 4.80107 | 16999 ft | 367 kts | 2° |
| 2026-05-07 21:07 | 44.78724 | 4.80369 | 16998 ft | 367 kts | 2° |
| 2026-05-07 21:07 | 44.81255 | 4.80631 | 16853 ft | 360 kts | 2° |
| 2026-05-07 21:07 | 44.83722 | 4.80888 | 16590 ft | 353 kts | 2° |
| 2026-05-07 21:07 | 44.86163 | 4.81137 | 16333 ft | 350 kts | 2° |
| 2026-05-07 21:08 | 44.88592 | 4.81382 | 16079 ft | 349 kts | 2° |
| 2026-05-07 21:08 | 44.91006 | 4.81624 | 15833 ft | 348 kts | 2° |
| 2026-05-07 21:08 | 44.93417 | 4.81869 | 15582 ft | 347 kts | 2° |
| 2026-05-07 21:08 | 44.95801 | 4.82113 | 15302 ft | 339 kts | 2° |
| 2026-05-07 21:09 | 44.98140 | 4.82352 | 14907 ft | 334 kts | 2° |
| 2026-05-07 21:09 | 45.00447 | 4.82588 | 14508 ft | 330 kts | 2° |
| 2026-05-07 21:09 | 45.02725 | 4.82822 | 14105 ft | 326 kts | 2° |
| 2026-05-07 21:09 | 45.04960 | 4.83056 | 13703 ft | 322 kts | 2° |
| 2026-05-07 21:10 | 45.07185 | 4.83291 | 13292 ft | 319 kts | 2° |
| 2026-05-07 21:10 | 45.09384 | 4.83523 | 12893 ft | 315 kts | 2° |
| 2026-05-07 21:10 | 45.11534 | 4.83746 | 12506 ft | 312 kts | 2° |
| 2026-05-07 21:10 | 45.13695 | 4.83968 | 12121 ft | 309 kts | 2° |
| 2026-05-07 21:11 | 45.15824 | 4.84186 | 11746 ft | 306 kts | 3° |
| 2026-05-07 21:11 | 45.17930 | 4.84586 | 11374 ft | 305 kts | 13° |
| 2026-05-07 21:11 | 45.21974 | 4.86295 | 10624 ft | 301 kts | 17° |
| 2026-05-07 21:12 | 45.23974 | 4.87157 | 10265 ft | 299 kts | 17° |
| 2026-05-07 21:12 | 45.25957 | 4.88011 | 10184 ft | 299 kts | 17° |
| 2026-05-07 21:12 | 45.27897 | 4.89056 | 10054 ft | 298 kts | 28° |
| 2026-05-07 21:12 | 45.29616 | 4.90671 | 9762 ft | 298 kts | 41° |
| 2026-05-07 21:13 | 45.31147 | 4.92653 | 9309 ft | 295 kts | 43° |
| 2026-05-07 21:13 | 45.32658 | 4.94632 | 8844 ft | 294 kts | 43° |
| 2026-05-07 21:13 | 45.34154 | 4.96588 | 8383 ft | 293 kts | 43° |
| 2026-05-07 21:13 | 45.35645 | 4.98535 | 8013 ft | 289 kts | 43° |
| 2026-05-07 21:14 | 45.37119 | 5.00453 | 7584 ft | 287 kts | 43° |
| 2026-05-07 21:14 | 45.38586 | 5.02359 | 7159 ft | 285 kts | 43° |
| 2026-05-07 21:14 | 45.40023 | 5.04230 | 6747 ft | 283 kts | 43° |
| 2026-05-07 21:14 | 45.41471 | 5.06117 | 6320 ft | 282 kts | 43° |
| 2026-05-07 21:15 | 45.42902 | 5.07985 | 6031 ft | 274 kts | 43° |
| 2026-05-07 21:15 | 45.44274 | 5.09776 | 5896 ft | 261 kts | 43° |
| 2026-05-07 21:15 | 45.45691 | 5.11314 | 5736 ft | 256 kts | 29° |
| 2026-05-07 21:15 | 45.47402 | 5.12149 | 5445 ft | 268 kts | 8° |
| 2026-05-07 21:16 | 45.49276 | 5.12139 | 5113 ft | 270 kts | 356° |
| 2026-05-07 21:16 | 45.51110 | 5.11906 | 4765 ft | 260 kts | 355° |
| 2026-05-07 21:16 | 45.52874 | 5.11685 | 4419 ft | 250 kts | 356° |
| 2026-05-07 21:16 | 45.54556 | 5.11481 | 4101 ft | 236 kts | 356° |
| 2026-05-07 21:17 | 45.56151 | 5.11289 | 3781 ft | 224 kts | 356° |
| 2026-05-07 21:17 | 45.57656 | 5.11107 | 3503 ft | 210 kts | 356° |
| 2026-05-07 21:17 | 45.59062 | 5.10937 | 3223 ft | 197 kts | 355° |
| 2026-05-07 21:17 | 45.60391 | 5.10777 | 2966 ft | 187 kts | 356° |
| 2026-05-07 21:18 | 45.61639 | 5.10625 | 2721 ft | 172 kts | 356° |
| 2026-05-07 21:18 | 45.62773 | 5.10488 | 2500 ft | 156 kts | 356° |
| 2026-05-07 21:18 | 45.63812 | 5.10362 | 2294 ft | 146 kts | 355° |
| 2026-05-07 21:18 | 45.64811 | 5.10242 | 2075 ft | 143 kts | 355° |
| 2026-05-07 21:19 | 45.65797 | 5.10121 | 1869 ft | 142 kts | 355° |
| 2026-05-07 21:19 | 45.66777 | 5.10004 | 1717 ft | 141 kts | 355° |
| 2026-05-07 21:19 | 45.67751 | 5.09885 | 1511 ft | 140 kts | 355° |
| 2026-05-07 21:19 | 45.68711 | 5.09771 | 1311 ft | 140 kts | 355° |
| 2026-05-07 21:20 | 45.69687 | 5.09647 | 1147 ft | 141 kts | 354° |
| 2026-05-07 21:20 | 45.70663 | 5.09533 | 952 ft | 140 kts | 355° |
| 2026-05-07 21:20 | 45.71631 | 5.09414 | 813 ft | 136 kts | 355° |
| 2026-05-07 21:20 | 45.72466 | 5.09317 | 784 ft | 87 kts | 354° |
| 2026-05-07 21:21 | 45.72783 | 5.09274 | 778 ft | 21 kts | 355° |
| 2026-05-07 21:21 | 45.72925 | 5.09256 | 776 ft | 17 kts | 353° |
| 2026-05-07 21:21 | 45.72976 | 5.09136 | 775 ft | 15 kts | 267° |
| 2026-05-07 21:21 | 45.72969 | 5.09010 | 780 ft | 11 kts | 265° |
| 2026-05-07 21:22 | 45.72959 | 5.08857 | 785 ft | 21 kts | 265° |
| 2026-05-07 21:22 | 45.72943 | 5.08598 | 784 ft | 29 kts | 265° |
| 2026-05-07 21:22 | 45.72936 | 5.08475 | 783 ft | 0 kts | 265° |
| 2026-05-07 21:25 | 45.72935 | 5.08466 | 783 ft | 5 kts | 265° |
| 2026-05-07 21:25 | 45.72922 | 5.08397 | 783 ft | 7 kts | 238° |
| 2026-05-07 21:25 | 45.72875 | 5.08352 | 783 ft | 13 kts | 191° |
| 2026-05-07 21:25 | 45.72769 | 5.08358 | 785 ft | 15 kts | 173° |
| 2026-05-07 21:26 | 45.72672 | 5.08373 | 786 ft | 13 kts | 174° |
| 2026-05-07 21:26 | 45.72587 | 5.08384 | 787 ft | 11 kts | 175° |
| 2026-05-07 21:26 | 45.72513 | 5.08392 | 788 ft | 10 kts | 175° |
| 2026-05-07 21:26 | 45.72452 | 5.08398 | 788 ft | 8 kts | 175° |
| 2026-05-07 21:27 | 45.72404 | 5.08404 | 789 ft | 6 kts | 175° |
| 2026-05-07 21:27 | 45.72348 | 5.08401 | 790 ft | 10 kts | 207° |
| 2026-05-07 21:27 | 45.72323 | 5.08315 | 790 ft | 9 kts | 255° |
| 2026-05-07 21:27 | 45.72281 | 5.08280 | 790 ft | 7 kts | 171° |
| 2026-05-07 21:28 | 45.72247 | 5.08285 | 791 ft | 3 kts | 207° |
| 2026-05-07 21:28 | 45.72237 | 5.08269 | 791 ft | 2 kts | 230° |
| 2026-05-07 21:28 | 45.72225 | 5.08234 | 791 ft | 3 kts | 253° |
| 2026-05-07 21:28 | 45.72223 | 5.08210 | 791 ft | 2 kts | 266° |
| 2026-05-07 21:29 | 45.72223 | 5.08191 | 791 ft | 2 kts | 269° |
| 2026-05-07 21:29 | 45.72223 | 5.08183 | 791 ft | 0 kts | 270° |